createdAt,value
2019-05-28T00:01:16.520Z,1.33
2019-05-28T00:03:46.804Z,1.60
2019-05-28T00:06:17.005Z,1.53
2019-05-28T00:08:47.182Z,1.63
2019-05-28T00:11:17.459Z,1.90
2019-05-28T00:13:47.727Z,2.03
2019-05-28T00:16:18.012Z,2.17
2019-05-28T00:18:48.264Z,2.03
2019-05-28T00:21:18.563Z,2.00
2019-05-28T00:23:48.741Z,2.00
2019-05-28T00:26:19.051Z,1.87
2019-05-28T00:28:49.225Z,2.13
2019-05-28T00:31:19.540Z,2.10
2019-05-28T00:33:49.809Z,1.90
2019-05-28T00:36:20.029Z,1.67
2019-05-28T00:38:50.234Z,1.70
2019-05-28T00:41:20.429Z,1.90
2019-05-28T00:43:50.759Z,1.60
2019-05-28T00:46:21.046Z,1.63
2019-05-28T00:48:51.246Z,1.63
2019-05-28T00:51:21.629Z,1.73
2019-05-28T00:53:51.833Z,1.40
2019-05-28T00:56:22.816Z,1.73
2019-05-28T00:58:53.601Z,1.70
2019-05-28T01:01:23.907Z,1.60
2019-05-28T01:03:54.137Z,1.87
2019-05-28T01:06:24.344Z,2.47
2019-05-28T01:08:54.550Z,2.27
2019-05-28T01:11:24.846Z,2.07
2019-05-28T01:13:55.118Z,1.87
2019-05-28T01:16:25.312Z,2.23
2019-05-28T01:18:55.499Z,2.80
2019-05-28T01:21:25.811Z,2.57
2019-05-28T01:23:56.110Z,2.17
2019-05-28T01:26:26.339Z,2.20
2019-05-28T01:28:56.692Z,2.20
2019-05-28T01:31:26.969Z,2.20
2019-05-28T01:33:57.140Z,2.00
2019-05-28T01:36:27.411Z,2.60
2019-05-28T01:38:57.652Z,2.23
2019-05-28T01:41:27.844Z,2.50
2019-05-28T01:43:58.088Z,2.37
2019-05-28T01:46:28.383Z,2.10
2019-05-28T01:48:58.725Z,2.50
2019-05-28T01:51:28.921Z,2.60
2019-05-28T01:53:59.198Z,2.47
2019-05-28T01:56:29.362Z,2.30
2019-05-28T01:58:59.640Z,2.40
2019-05-28T02:01:29.904Z,2.43
2019-05-28T02:04:00.084Z,2.07
2019-05-28T02:06:30.366Z,1.93
2019-05-28T02:09:00.628Z,1.83
2019-05-28T02:11:30.816Z,2.00
2019-05-28T02:14:01.117Z,2.10
2019-05-28T02:16:31.330Z,2.70
2019-05-28T02:19:01.556Z,3.17
2019-05-28T02:21:31.841Z,3.43
2019-05-28T02:24:02.117Z,3.10
2019-05-28T02:26:32.296Z,3.80
2019-05-28T02:29:02.534Z,3.43
2019-05-28T02:31:32.781Z,3.30
2019-05-28T02:34:03.085Z,3.97
2019-05-28T02:36:33.372Z,4.40
2019-05-28T02:39:05.209Z,5.07
2019-05-28T02:41:35.666Z,5.43
2019-05-28T02:44:06.165Z,5.47
2019-05-28T02:46:36.344Z,5.77
2019-05-28T02:49:06.634Z,5.97
2019-05-28T02:51:36.959Z,5.80
2019-05-28T02:54:07.164Z,5.80
2019-05-28T02:56:39.226Z,6.00
2019-05-28T02:59:11.698Z,5.70
2019-05-28T03:01:45.046Z,5.57
2019-05-28T03:04:15.975Z,6.10
2019-05-28T03:06:48.316Z,5.90
2019-05-28T03:09:20.984Z,6.13
2019-05-28T03:11:51.152Z,6.60
2019-05-28T03:14:21.369Z,6.50
2019-05-28T03:16:54.559Z,6.17
2019-05-28T03:19:27.227Z,6.30
2019-05-28T03:22:00.435Z,6.37
2019-05-28T03:24:33.297Z,6.53
2019-05-28T03:27:03.472Z,6.23
2019-05-28T03:29:33.769Z,6.17
2019-05-28T03:32:07.730Z,6.63
2019-05-28T03:34:35.932Z,6.57
2019-05-28T03:37:06.598Z,6.67
2019-05-28T03:39:39.015Z,7.00
2019-05-28T03:42:09.227Z,7.90
2019-05-28T03:44:39.502Z,7.40
2019-05-28T03:47:09.740Z,8.43
2019-05-28T03:49:40.016Z,7.67
2019-05-28T03:52:10.250Z,8.50
2019-05-28T03:54:40.457Z,7.90
2019-05-28T03:57:10.745Z,8.00
2019-05-28T03:59:40.940Z,8.33
2019-05-28T04:02:23.300Z,8.10
2019-05-28T04:04:43.109Z,8.20
2019-05-28T04:07:13.357Z,8.80
2019-05-28T04:09:43.538Z,9.07
2019-05-28T04:12:13.842Z,8.33
2019-05-28T04:14:44.090Z,8.10
2019-05-28T04:17:14.290Z,8.20
2019-05-28T04:19:44.562Z,8.93
2019-05-28T04:22:14.768Z,8.97
2019-05-28T04:24:45.043Z,8.67
2019-05-28T04:27:15.273Z,8.40
2019-05-28T04:29:45.533Z,8.93
2019-05-28T04:32:15.824Z,8.30
2019-05-28T04:34:46.009Z,8.90
2019-05-28T04:37:17.038Z,8.97
2019-05-28T04:39:47.270Z,8.80
2019-05-28T04:42:17.552Z,8.07
2019-05-28T04:44:47.748Z,6.97
2019-05-28T04:47:18.014Z,5.10
2019-05-28T04:49:48.326Z,5.30
2019-05-28T04:52:18.541Z,4.70
2019-05-28T04:54:49.543Z,6.53
2019-05-28T04:57:19.813Z,5.27
2019-05-28T04:59:50.060Z,4.00
2019-05-28T05:02:20.319Z,3.37
2019-05-28T05:04:50.592Z,4.97
2019-05-28T05:07:20.881Z,3.17
2019-05-28T05:09:51.156Z,2.43
2019-05-28T05:12:21.598Z,2.30
2019-05-28T05:14:51.854Z,2.37
2019-05-28T05:17:22.051Z,2.40
2019-05-28T05:20:10.715Z,2.30
2019-05-28T05:22:41.019Z,2.13
2019-05-28T05:25:12.102Z,2.10
2019-05-28T05:27:42.323Z,2.57
2019-05-28T05:30:12.696Z,2.87
2019-05-28T05:32:43.067Z,3.40
2019-05-28T05:35:13.613Z,2.20
2019-05-28T05:37:43.809Z,2.87
2019-05-28T05:40:14.426Z,22.07
2019-05-28T05:42:44.749Z,2.97
2019-05-28T05:45:15.315Z,2.03
2019-05-28T05:47:45.617Z,2.47
2019-05-28T05:50:16.017Z,2.13
2019-05-28T05:52:46.285Z,1.90
2019-05-28T05:55:16.693Z,1.83
2019-05-28T05:57:46.881Z,1.90
2019-05-28T06:00:18.285Z,1.87
2019-05-28T06:02:48.565Z,2.27
2019-05-28T06:05:18.840Z,1.70
2019-05-28T06:07:49.175Z,1.83
2019-05-28T06:10:19.793Z,1.80
2019-05-28T06:12:50.061Z,1.80
2019-05-28T06:15:20.339Z,2.43
2019-05-28T06:17:50.601Z,3.10
2019-05-28T06:20:20.894Z,2.30
2019-05-28T06:22:51.190Z,2.17
2019-05-28T06:25:21.380Z,2.27
2019-05-28T06:27:51.655Z,2.67
2019-05-28T06:30:22.041Z,7.07
2019-05-28T06:32:52.321Z,3.13
2019-05-28T06:35:22.650Z,2.30
2019-05-28T06:37:52.916Z,2.63
2019-05-28T06:40:23.340Z,2.17
2019-05-28T06:42:53.518Z,2.33
2019-05-28T06:45:24.194Z,2.57
2019-05-28T06:47:54.477Z,2.40
2019-05-28T06:50:24.690Z,2.60
2019-05-28T06:52:54.966Z,2.20
2019-05-28T06:55:25.173Z,2.40
2019-05-28T06:57:55.450Z,2.63
2019-05-28T07:00:25.878Z,3.10
2019-05-28T07:02:56.475Z,2.67
2019-05-28T07:05:26.840Z,2.60
2019-05-28T07:07:57.092Z,2.60
2019-05-28T07:10:27.404Z,2.50
2019-05-28T07:12:57.602Z,3.20
2019-05-28T07:15:27.926Z,3.00
2019-05-28T07:17:59.715Z,2.90
2019-05-28T07:20:30.158Z,3.97
2019-05-28T07:23:00.474Z,5.53
2019-05-28T07:25:30.670Z,5.17
2019-05-28T07:28:11.126Z,4.00
2019-05-28T07:30:32.788Z,3.83
2019-05-28T07:33:03.114Z,2.57
2019-05-28T07:35:45.207Z,2.60
2019-05-28T07:38:05.563Z,3.43
2019-05-28T07:40:35.882Z,3.43
2019-05-28T07:43:06.170Z,3.63
2019-05-28T07:45:36.479Z,4.30
2019-05-28T07:48:06.757Z,4.93
2019-05-28T07:50:36.967Z,4.60
2019-05-28T07:53:07.256Z,4.00
2019-05-28T07:55:37.609Z,3.47
2019-05-28T07:58:07.904Z,3.60
2019-05-28T08:00:39.928Z,7.20
2019-05-28T08:03:10.365Z,8.77
2019-05-28T08:05:40.589Z,5.50
2019-05-28T08:08:12.956Z,3.67
2019-05-28T08:10:43.178Z,3.30
2019-05-28T08:13:13.456Z,3.23
2019-05-28T08:15:43.750Z,3.60
2019-05-28T08:18:13.968Z,3.17
2019-05-28T08:20:44.187Z,4.20
2019-05-28T08:23:14.395Z,3.90
2019-05-28T08:25:47.499Z,4.23
2019-05-28T08:28:20.386Z,4.50
2019-05-28T08:30:48.762Z,4.00
2019-05-28T08:33:18.948Z,4.87
2019-05-28T08:35:51.633Z,5.60
2019-05-28T08:38:21.334Z,5.00
2019-05-28T08:40:51.626Z,5.57
2019-05-28T08:43:23.504Z,4.97
2019-05-28T08:45:53.735Z,5.53
2019-05-28T08:48:23.976Z,6.33
2019-05-28T08:50:54.359Z,5.43
2019-05-28T08:53:24.751Z,6.03
2019-05-28T08:55:55.037Z,6.57
2019-05-28T08:58:25.293Z,6.13
2019-05-28T09:00:55.588Z,9.40
2019-05-28T09:03:25.768Z,4.00
2019-05-28T09:05:56.090Z,4.00
2019-05-28T09:08:38.735Z,2.37
2019-05-28T09:10:58.440Z,2.47
2019-05-28T09:13:28.738Z,2.70
2019-05-28T09:15:59.030Z,2.40
2019-05-28T09:18:29.358Z,2.80
2019-05-28T09:20:59.722Z,2.87
2019-05-28T09:23:30.048Z,3.23
2019-05-28T09:26:00.339Z,2.50
2019-05-28T09:28:31.424Z,2.47
2019-05-28T09:31:01.960Z,2.30
2019-05-28T09:33:32.314Z,2.20
2019-05-28T09:36:08.647Z,2.43
2019-05-28T09:38:37.302Z,2.43
2019-05-28T09:41:07.584Z,6.60
2019-05-28T09:43:37.858Z,1.70
2019-05-28T09:46:08.050Z,1.77
2019-05-28T09:48:39.834Z,1.50
2019-05-28T09:51:10.120Z,1.50
2019-05-28T09:53:40.402Z,1.50
2019-05-28T09:56:10.673Z,1.57
2019-05-28T09:58:40.979Z,1.10
2019-05-28T10:01:11.457Z,1.17
2019-05-28T10:03:41.758Z,1.90
2019-05-28T10:06:17.401Z,2.40
2019-05-28T10:08:48.670Z,1.43
2019-05-28T10:11:23.285Z,1.40
2019-05-28T10:13:53.498Z,1.60
2019-05-28T10:16:23.805Z,1.20
2019-05-28T10:18:54.102Z,1.23
2019-05-28T10:21:24.436Z,1.23
2019-05-28T10:23:54.750Z,1.27
2019-05-28T10:26:25.136Z,1.50
2019-05-28T10:28:55.448Z,1.50
2019-05-28T10:31:26.897Z,1.37
2019-05-28T10:33:57.113Z,1.10
2019-05-28T10:36:36.284Z,1.40
2019-05-28T10:38:59.506Z,1.30
2019-05-28T10:41:29.839Z,1.33
2019-05-28T10:44:00.187Z,1.40
2019-05-28T10:46:30.443Z,1.33
2019-05-28T10:49:00.753Z,1.10
2019-05-28T10:51:31.074Z,1.00
2019-05-28T10:54:01.361Z,1.20
2019-05-28T10:56:31.677Z,1.30
2019-05-28T10:59:01.998Z,1.50
2019-05-28T11:01:32.286Z,1.53
2019-05-28T11:04:02.589Z,1.97
2019-05-28T11:06:32.919Z,1.70
2019-05-28T11:09:03.344Z,1.43
2019-05-28T11:11:33.706Z,2.70
2019-05-28T11:14:04.200Z,1.57
2019-05-28T11:16:34.505Z,2.00
2019-05-28T11:19:04.913Z,1.07
2019-05-28T11:21:35.219Z,1.03
2019-05-28T11:24:05.613Z,1.43
2019-05-28T11:26:35.975Z,1.47
2019-05-28T11:29:06.299Z,1.53
2019-05-28T11:31:36.629Z,1.23
2019-05-28T11:34:06.934Z,1.37
2019-05-28T11:36:37.261Z,1.33
2019-05-28T11:39:10.299Z,1.67
2019-05-28T11:41:42.529Z,1.30
2019-05-28T11:44:12.556Z,1.47
2019-05-28T11:46:42.849Z,0.93
2019-05-28T11:49:13.231Z,1.33
2019-05-28T11:51:43.433Z,1.20
2019-05-28T11:54:13.654Z,1.10
2019-05-28T11:56:43.891Z,0.77
2019-05-28T11:59:14.134Z,1.03
2019-05-28T12:01:44.445Z,1.00
2019-05-28T12:04:14.786Z,1.40
2019-05-28T12:06:45.119Z,1.40
2019-05-28T12:09:15.332Z,1.50
2019-05-28T12:11:46.398Z,1.67
2019-05-28T12:14:16.830Z,6.00
2019-05-28T12:16:47.150Z,1.70
2019-05-28T12:19:17.380Z,1.17
2019-05-28T12:21:47.557Z,1.50
2019-05-28T12:24:17.861Z,1.00
2019-05-28T12:26:48.171Z,1.20
2019-05-28T12:29:18.512Z,1.20
2019-05-28T12:31:48.794Z,0.90
2019-05-28T12:34:19.012Z,2.43
2019-05-28T12:36:49.421Z,2.03
2019-05-28T12:39:19.663Z,1.10
2019-05-28T12:42:01.659Z,1.20
2019-05-28T12:44:21.877Z,0.67
2019-05-28T12:46:52.091Z,0.87
2019-05-28T12:49:22.318Z,1.10
2019-05-28T12:51:52.610Z,1.23
2019-05-28T12:54:22.924Z,1.13
2019-05-28T12:56:53.176Z,2.30
2019-05-28T12:59:23.410Z,2.57
2019-05-28T13:01:53.763Z,1.57
2019-05-28T13:04:24.068Z,1.23
2019-05-28T13:06:54.379Z,1.07
2019-05-28T13:09:24.609Z,1.33
2019-05-28T13:11:55.038Z,1.03
2019-05-28T13:14:25.376Z,1.30
2019-05-28T13:16:55.679Z,1.27
2019-05-28T13:19:25.963Z,1.17
2019-05-28T13:21:56.320Z,1.20
2019-05-28T13:24:26.633Z,1.27
2019-05-28T13:26:56.995Z,1.33
2019-05-28T13:29:27.397Z,1.20
2019-05-28T13:31:57.778Z,1.20
2019-05-28T13:34:28.190Z,1.43
2019-05-28T13:36:58.532Z,0.87
2019-05-28T13:39:28.861Z,1.00
2019-05-28T13:41:59.210Z,1.00
2019-05-28T13:44:29.568Z,1.20
2019-05-28T13:46:59.860Z,1.10
2019-05-28T13:49:30.185Z,1.10
2019-05-28T13:52:11.629Z,0.93
2019-05-28T13:54:32.321Z,1.40
2019-05-28T13:57:02.672Z,1.30
2019-05-28T13:59:32.888Z,1.00
2019-05-28T14:02:03.503Z,0.83
2019-05-28T14:04:34.020Z,1.30
2019-05-28T14:07:04.389Z,1.30
2019-05-28T14:09:34.726Z,1.57
2019-05-28T14:12:05.735Z,1.33
2019-05-28T14:14:36.066Z,1.10
2019-05-28T14:17:06.539Z,1.03
2019-05-28T14:19:36.866Z,2.07
2019-05-28T14:22:07.347Z,2.17
2019-05-28T14:24:37.662Z,1.50
2019-05-28T14:27:08.004Z,1.10
2019-05-28T14:29:38.284Z,1.23
2019-05-28T14:32:08.607Z,1.47
2019-05-28T14:34:38.888Z,1.63
2019-05-28T14:37:09.189Z,1.20
2019-05-28T14:39:41.439Z,1.30
2019-05-28T14:42:11.483Z,1.10
2019-05-28T14:44:43.363Z,1.40
2019-05-28T14:47:13.829Z,1.00
2019-05-28T14:49:44.262Z,1.17
2019-05-28T14:52:14.633Z,1.13
2019-05-28T14:54:44.930Z,1.50
2019-05-28T14:57:15.202Z,0.90
2019-05-28T14:59:45.542Z,1.20
2019-05-28T15:02:15.879Z,0.97
2019-05-28T15:04:46.208Z,1.10
2019-05-28T15:07:16.698Z,0.90
2019-05-28T15:09:46.993Z,1.00
2019-05-28T15:12:17.305Z,1.00
2019-05-28T15:14:47.579Z,1.00
2019-05-28T15:17:17.914Z,1.00
2019-05-28T15:19:48.274Z,1.13
2019-05-28T15:22:18.625Z,1.20
2019-05-28T15:24:49.916Z,1.00
2019-05-28T15:27:23.250Z,1.30
2019-05-28T15:29:53.579Z,1.00
2019-05-28T15:32:23.833Z,1.20
2019-05-28T15:35:05.007Z,1.00
2019-05-28T15:37:35.329Z,1.03
2019-05-28T15:40:06.294Z,1.00
2019-05-28T15:42:36.693Z,1.07
2019-05-28T15:45:07.466Z,1.27
2019-05-28T15:47:37.870Z,1.20
2019-05-28T15:50:08.421Z,1.10
2019-05-28T15:52:38.738Z,1.30
2019-05-28T15:55:09.666Z,1.00
2019-05-28T15:57:39.936Z,1.10
2019-05-28T16:00:11.125Z,2.77
2019-05-28T16:02:41.499Z,1.80
2019-05-28T16:05:11.886Z,7.83
2019-05-28T16:07:42.221Z,3.00
2019-05-28T16:10:12.546Z,3.83
2019-05-28T16:12:42.993Z,2.90
2019-05-28T16:15:13.630Z,1.77
2019-05-28T16:17:43.877Z,3.50
2019-05-28T16:20:15.577Z,2.30
2019-05-28T16:22:45.888Z,3.13
2019-05-28T16:25:16.549Z,4.23
2019-05-28T16:27:46.943Z,4.33
2019-05-28T16:30:18.138Z,2.50
2019-05-28T16:32:49.947Z,2.40
2019-05-28T16:35:21.316Z,1.67
2019-05-28T16:37:52.913Z,1.20
2019-05-28T16:40:23.826Z,1.53
2019-05-28T16:42:54.979Z,1.37
2019-05-28T16:45:27.810Z,4.83
2019-05-28T16:47:59.599Z,1.93
2019-05-28T16:50:30.971Z,1.90
2019-05-28T16:53:02.794Z,1.97
2019-05-28T16:55:34.418Z,1.43
2019-05-28T16:58:04.873Z,1.80
2019-05-28T17:00:35.190Z,1.83
2019-05-28T17:03:05.517Z,2.40
2019-05-28T17:05:35.945Z,1.50
2019-05-28T17:08:06.315Z,1.63
2019-05-28T17:10:36.613Z,1.60
2019-05-28T17:13:06.942Z,1.80
2019-05-28T17:15:37.286Z,2.07
2019-05-28T17:18:07.611Z,1.30
2019-05-28T17:20:37.969Z,1.10
2019-05-28T17:23:08.236Z,1.23
2019-05-28T17:25:38.525Z,1.23
2019-05-28T17:28:10.024Z,1.10
2019-05-28T17:30:41.071Z,1.10
2019-05-28T17:33:12.539Z,0.80
2019-05-28T17:35:43.881Z,1.47
2019-05-28T17:38:14.647Z,0.80
2019-05-28T17:40:48.779Z,0.90
2019-05-28T17:43:18.848Z,1.10
2019-05-28T17:45:49.169Z,0.73
2019-05-28T17:48:19.482Z,1.07
2019-05-28T17:50:53.144Z,0.90
2019-05-28T17:53:22.800Z,0.73
2019-05-28T17:55:53.070Z,1.10
2019-05-28T17:58:23.381Z,0.90
2019-05-28T18:00:53.687Z,0.80
2019-05-28T18:03:24.021Z,0.83
2019-05-28T18:05:54.430Z,0.80
2019-05-28T18:08:24.797Z,1.10
2019-05-28T18:11:03.656Z,1.80
2019-05-28T18:13:28.615Z,1.07
2019-05-28T18:15:59.009Z,1.30
2019-05-28T18:18:29.386Z,0.90
2019-05-28T18:20:59.713Z,1.00
2019-05-28T18:23:29.965Z,1.20
2019-05-28T18:26:00.292Z,0.90
2019-05-28T18:28:30.597Z,2.30
2019-05-28T18:31:00.922Z,1.30
2019-05-28T18:33:31.258Z,1.00
2019-05-28T18:36:01.576Z,1.00
2019-05-28T18:38:31.907Z,1.17
2019-05-28T18:41:02.201Z,0.70
2019-05-28T18:43:32.487Z,1.20
2019-05-28T18:46:02.806Z,1.00
2019-05-28T18:48:33.134Z,1.17
2019-05-28T18:51:03.360Z,1.30
2019-05-28T18:53:33.706Z,0.80
2019-05-28T18:56:16.333Z,0.90
2019-05-28T18:58:36.060Z,1.10
2019-05-28T19:01:06.455Z,0.77
2019-05-28T19:03:36.717Z,1.07
2019-05-28T19:06:07.045Z,0.93
2019-05-28T19:08:37.374Z,0.93
2019-05-28T19:11:07.635Z,0.87
2019-05-28T19:13:37.915Z,0.97
2019-05-28T19:16:08.233Z,1.10
2019-05-28T19:18:38.579Z,1.00
2019-05-28T19:21:08.882Z,1.00
2019-05-28T19:23:39.154Z,1.00
2019-05-28T19:26:09.389Z,1.20
2019-05-28T19:28:39.919Z,1.07
2019-05-28T19:31:10.585Z,0.90
2019-05-28T19:33:40.891Z,1.10
2019-05-28T19:36:11.899Z,1.00
2019-05-28T19:38:45.934Z,1.13
2019-05-28T19:41:15.476Z,0.83
2019-05-28T19:43:45.778Z,1.10
2019-05-28T19:46:16.003Z,1.20
2019-05-28T19:48:46.338Z,1.13
2019-05-28T19:51:16.737Z,0.80
2019-05-28T19:53:49.861Z,1.37
2019-05-28T19:56:23.586Z,1.30
2019-05-28T19:58:54.290Z,1.30
2019-05-28T20:01:26.182Z,1.60
2019-05-28T20:03:58.190Z,1.60
2019-05-28T20:06:31.622Z,1.33
2019-05-28T20:09:05.367Z,1.53
2019-05-28T20:11:37.325Z,1.40
2019-05-28T20:14:16.571Z,1.10
2019-05-28T20:16:55.349Z,1.40
2019-05-28T20:19:27.699Z,1.20
2019-05-28T20:21:59.574Z,0.90
2019-05-28T20:24:38.761Z,1.33
2019-05-28T20:27:10.664Z,1.20
2019-05-28T20:29:40.942Z,1.10
2019-05-28T20:32:11.228Z,1.20
2019-05-28T20:34:41.535Z,1.23
2019-05-28T20:37:11.757Z,1.20
2019-05-28T20:39:42.144Z,0.87
2019-05-28T20:42:24.413Z,0.83
2019-05-28T20:44:44.414Z,1.20
2019-05-28T20:47:16.796Z,0.97
2019-05-28T20:49:48.489Z,0.93
2019-05-28T20:52:18.910Z,1.20
2019-05-28T20:54:49.303Z,1.53
2019-05-28T20:57:19.569Z,1.30
2019-05-28T20:59:49.882Z,1.20
2019-05-28T21:02:20.185Z,1.20
2019-05-28T21:04:50.534Z,0.93
2019-05-28T21:07:22.593Z,0.83
2019-05-28T21:09:58.343Z,0.90
2019-05-28T21:12:42.725Z,0.80
2019-05-28T21:15:02.114Z,0.80
2019-05-28T21:17:32.667Z,1.10
2019-05-28T21:20:02.939Z,0.87
2019-05-28T21:22:33.267Z,1.00
2019-05-28T21:25:05.111Z,1.27
2019-05-28T21:27:35.432Z,0.90
2019-05-28T21:30:06.712Z,0.60
2019-05-28T21:32:37.086Z,0.90
2019-05-28T21:35:07.758Z,0.90
2019-05-28T21:37:38.021Z,0.80
2019-05-28T21:40:08.728Z,1.00
2019-05-28T21:42:39.121Z,0.93
2019-05-28T21:45:11.074Z,0.90
2019-05-28T21:47:41.435Z,0.87
2019-05-28T21:50:12.138Z,0.80
2019-05-28T21:52:42.880Z,0.77
2019-05-28T21:55:13.409Z,0.73
2019-05-28T21:57:43.826Z,0.90
2019-05-28T22:00:22.750Z,0.80
2019-05-28T22:02:53.070Z,0.80
2019-05-28T22:05:24.536Z,1.00
2019-05-28T22:07:55.340Z,0.63
2019-05-28T22:10:25.712Z,0.70
2019-05-28T22:12:56.044Z,0.77
2019-05-28T22:15:26.386Z,0.60
2019-05-28T22:17:56.649Z,0.70
2019-05-28T22:20:26.877Z,0.70
2019-05-28T22:22:58.329Z,0.83
2019-05-28T22:25:28.716Z,0.70
2019-05-28T22:27:58.950Z,1.03
2019-05-28T22:30:29.328Z,0.97
2019-05-28T22:33:00.019Z,0.90
2019-05-28T22:35:30.258Z,0.60
2019-05-28T22:38:01.157Z,0.80
2019-05-28T22:40:31.496Z,0.80
2019-05-28T22:43:03.518Z,0.70
2019-05-28T22:45:33.638Z,0.73
2019-05-28T22:48:07.569Z,0.70
2019-05-28T22:50:35.770Z,0.80
2019-05-28T22:53:06.188Z,0.80
2019-05-28T22:55:36.463Z,1.03
2019-05-28T22:58:06.722Z,0.60
2019-05-28T23:00:37.149Z,0.60
2019-05-28T23:03:07.419Z,0.70
2019-05-28T23:05:37.703Z,0.70
2019-05-28T23:08:07.990Z,0.80
2019-05-28T23:10:38.188Z,0.80
2019-05-28T23:13:09.114Z,0.83
2019-05-28T23:15:39.368Z,0.70
2019-05-28T23:18:10.898Z,0.90
2019-05-28T23:20:41.332Z,1.00
2019-05-28T23:23:11.528Z,0.70
2019-05-28T23:25:41.801Z,0.70
2019-05-28T23:28:12.149Z,0.80
2019-05-28T23:30:42.336Z,0.77
2019-05-28T23:33:14.213Z,0.70
2019-05-28T23:35:44.560Z,0.70
2019-05-28T23:38:14.749Z,0.60
2019-05-28T23:40:45.051Z,0.80
2019-05-28T23:43:15.262Z,0.70
2019-05-28T23:45:45.452Z,0.77
2019-05-28T23:48:18.212Z,0.80
2019-05-28T23:50:47.701Z,0.90
2019-05-28T23:53:17.976Z,0.80
2019-05-28T23:55:48.191Z,0.80
2019-05-28T23:58:18.418Z,0.80
